Time;durP1;ratioP1;P1;durP2;ratioP2;P2;SDS_P1;SDS_P2;PMS_P1;PMS_P2;Temp;Humidity;BMP_temperature;BMP_pressure;BME280_temperature;BME280_humidity;BME280_pressure;Samples;Min_cycle;Max_cycle;Signal;HPM_P1;HPM_P2
2023/05/01 00:22:17;;;;;;;13.43;7.13;;;6.00;87.70;;;;;;5722853;24;20190;-83
2023/05/01 00:26:37;;;;;;;15.17;7.70;;;5.90;88.00;;;;;;5597389;24;20270;-82
2023/05/01 00:47:37;;;;;;;10.73;7.20;;;5.40;90.40;;;;;;5648884;24;20274;-79
2023/05/01 00:51:58;;;;;;;11.60;7.23;;;5.40;90.40;;;;;;5510725;24;20664;-82
2023/05/01 01:12:45;;;;;;;11.43;7.60;;;5.00;92.10;;;;;;5759640;23;20810;-80
2023/05/01 01:48:16;;;;;;;9.20;7.10;;;4.10;99.90;;;;;;5754492;23;20683;-84
2023/05/01 02:13:05;;;;;;;12.00;7.73;;;3.60;99.90;;;;;;5395817;25;20417;-80
2023/05/01 02:38:54;;;;;;;13.30;8.10;;;2.70;99.90;;;;;;5405186;25;20202;-80
2023/05/01 02:59:02;;;;;;;16.03;9.20;;;2.40;99.90;;;;;;5416607;25;20251;-80
2023/05/01 03:24:43;;;;;;;19.73;9.43;;;2.30;99.90;;;;;;5437796;25;20645;-83
2023/05/01 04:09:54;;;;;;;14.90;10.37;;;3.60;99.90;;;;;;5503092;24;20225;-79
2023/05/01 04:30:34;;;;;;;16.80;9.90;;;4.50;99.90;;;;;;5682782;24;20218;-81
2023/05/01 04:34:55;;;;;;;16.37;10.27;;;4.70;99.90;;;;;;5517717;24;20712;-81
2023/05/01 05:00:45;;;;;;;10.67;6.43;;;6.20;90.80;;;;;;5659857;24;20705;-81
2023/05/01 05:36:00;;;;;;;8.50;5.67;;;7.70;84.80;;;;;;5897006;23;20583;-81
2023/05/01 06:01:46;;;;;;;5.30;4.03;;;8.90;76.00;;;;;;5742257;24;20527;-87
2023/05/01 06:42:15;;;;;;;5.47;3.10;;;10.20;57.00;;;;;;5854793;24;20374;-87
2023/05/01 07:02:39;;;;;;;6.87;4.07;;;10.90;51.90;;;;;;5822227;24;20265;-85
2023/05/01 08:48:56;;;;;;;4.93;3.17;;;13.00;47.60;;;;;;5593290;24;20187;-83
2023/05/01 09:14:12;;;;;;;4.97;3.60;;;13.80;43.30;;;;;;5648114;24;20275;-85
2023/05/01 10:14:55;;;;;;;5.33;2.93;;;14.00;40.90;;;;;;5569004;24;20214;-83
2023/05/01 10:45:28;;;;;;;7.93;2.97;;;14.60;40.60;;;;;;5646198;24;20442;-86
2023/05/01 14:03:17;;;;;;;4.03;2.20;;;20.00;35.10;;;;;;5629681;24;20215;-85
2023/05/01 14:07:36;;;;;;;4.15;2.30;;;20.50;36.50;;;;;;5629485;24;20553;-84
2023/05/01 14:33:22;;;;;;;4.38;2.90;;;23.90;35.80;;;;;;5813381;24;20575;-85
2023/05/01 14:58:46;;;;;;;8.27;3.90;;;22.80;35.70;;;;;;5742111;24;20299;-88
2023/05/01 15:34:17;;;;;;;5.25;3.20;;;20.40;35.50;;;;;;5926486;23;20294;-84
2023/05/01 16:19:23;;;;;;;4.00;2.93;;;17.20;37.40;;;;;;6006529;23;20618;-83
2023/05/01 16:45:05;;;;;;;4.33;3.10;;;16.30;38.20;;;;;;5926859;23;20218;-84
2023/05/01 17:10:22;;;;;;;8.87;3.10;;;15.70;39.10;;;;;;5731106;24;20729;-81
2023/05/01 17:36:06;;;;;;;5.57;2.77;;;15.10;39.90;;;;;;5831550;24;20721;-85
2023/05/01 17:56:21;;;;;;;4.30;2.83;;;14.60;41.00;;;;;;5748995;24;20183;-85
2023/05/01 18:31:51;;;;;;;6.60;3.87;;;13.60;42.00;;;;;;5728899;24;20185;-86
2023/05/01 19:06:37;;;;;;;7.70;4.90;;;12.80;42.70;;;;;;5702436;24;20559;-86
2023/05/01 20:23:22;;;;;;;9.00;5.80;;;11.50;66.10;;;;;;5994681;23;20559;-88
2023/05/01 20:27:41;;;;;;;9.63;6.13;;;11.40;67.30;;;;;;5858310;23;20570;-84
2023/05/01 20:53:27;;;;;;;9.57;6.03;;;11.00;70.50;;;;;;5821910;24;20181;-87
2023/05/01 21:13:34;;;;;;;9.80;6.37;;;10.60;73.30;;;;;;5777124;24;20199;-84
2023/05/01 21:39:17;;;;;;;10.67;6.50;;;10.00;77.00;;;;;;5825979;24;20250;-87
2023/05/01 22:09:43;;;;;;;11.43;6.13;;;9.50;78.70;;;;;;5853502;23;20798;-85
2023/05/01 22:40:03;;;;;;;9.50;6.50;;;9.00;81.80;;;;;;5722098;24;20746;-85
2023/05/01 23:10:30;;;;;;;12.13;7.17;;;8.70;84.20;;;;;;5630236;24;20175;-82
2023/05/01 23:35:14;;;;;;;10.87;7.67;;;7.50;88.40;;;;;;5583551;24;20637;-82
2023/05/01 23:56:07;;;;;;;9.40;7.20;;;8.10;86.10;;;;;;5596970;24;20462;-84
